GLO1618 SBSP-SBRF
Flight info
| Callsign | GLO1618 |
|---|---|
| Flight time | 2h 33m |
| Altitude | 39000 |
| Route | NUXEL UZ23 ANBEX |
| Aircraft | B738/M-SDFGIKLORWXY/LB1 |
Departure
| Time | 2026-05-08 00:12 |
|---|---|
| Airport | Congonhas–Deputado Freitas Nobre Airport (SBSP) |
Arrival
| Time | 2026-05-08 02:46 |
|---|---|
| Airport | Recife/Guararapes - Gilberto Freyre International Airport (SBRF) |
| Time | Latitude | Longitude | Altitude | Speed | Heading |
|---|---|---|---|---|---|
| 2026-05-08 00:02 | -23.62598 | -46.65904 | 2600 ft | 0 kts | 237° |
| 2026-05-08 00:06 | -23.62589 | -46.65888 | 2572 ft | 4 kts | 233° |
| 2026-05-08 00:06 | -23.62573 | -46.65871 | 2610 ft | 4 kts | 179° |
| 2026-05-08 00:07 | -23.62557 | -46.65879 | 2600 ft | 1 kts | 147° |
| 2026-05-08 00:07 | -23.62556 | -46.65879 | 2600 ft | 0 kts | 147° |
| 2026-05-08 00:08 | -23.62558 | -46.65877 | 2600 ft | 2 kts | 147° |
| 2026-05-08 00:09 | -23.62592 | -46.65851 | 2600 ft | 10 kts | 130° |
| 2026-05-08 00:09 | -23.62644 | -46.65770 | 2601 ft | 16 kts | 144° |
| 2026-05-08 00:09 | -23.62757 | -46.65691 | 2601 ft | 22 kts | 147° |
| 2026-05-08 00:09 | -23.62900 | -46.65592 | 2602 ft | 25 kts | 147° |
| 2026-05-08 00:10 | -23.63051 | -46.65516 | 2601 ft | 23 kts | 167° |
| 2026-05-08 00:10 | -23.63188 | -46.65429 | 2601 ft | 23 kts | 147° |
| 2026-05-08 00:10 | -23.63318 | -46.65340 | 2601 ft | 22 kts | 147° |
| 2026-05-08 00:10 | -23.63415 | -46.65227 | 2602 ft | 21 kts | 86° |
| 2026-05-08 00:11 | -23.63412 | -46.65147 | 2602 ft | 9 kts | 123° |
| 2026-05-08 00:11 | -23.63413 | -46.65128 | 2601 ft | 1 kts | 14° |
| 2026-05-08 00:11 | -23.63410 | -46.65131 | 2601 ft | 0 kts | 328° |
| 2026-05-08 00:11 | -23.63403 | -46.65136 | 2602 ft | 10 kts | 327° |
| 2026-05-08 00:12 | -23.63101 | -46.65346 | 2609 ft | 92 kts | 328° |
| 2026-05-08 00:12 | -23.62345 | -46.65871 | 2631 ft | 160 kts | 330° |
| 2026-05-08 00:12 | -23.61408 | -46.66534 | 3598 ft | 150 kts | 329° |
| 2026-05-08 00:12 | -23.60459 | -46.66778 | 4490 ft | 151 kts | 10° |
| 2026-05-08 00:13 | -23.59504 | -46.66030 | 4637 ft | 200 kts | 51° |
| 2026-05-08 00:13 | -23.59148 | -46.64471 | 4884 ft | 237 kts | 90° |
| 2026-05-08 00:13 | -23.59553 | -46.62688 | 5490 ft | 240 kts | 101° |
| 2026-05-08 00:13 | -23.60020 | -46.60972 | 6095 ft | 247 kts | 101° |
| 2026-05-08 00:14 | -23.60486 | -46.59101 | 6402 ft | 274 kts | 100° |
| 2026-05-08 00:14 | -23.60991 | -46.57009 | 6879 ft | 292 kts | 102° |
| 2026-05-08 00:14 | -23.61896 | -46.54985 | 7593 ft | 305 kts | 129° |
| 2026-05-08 00:14 | -23.63404 | -46.53346 | 8478 ft | 307 kts | 135° |
| 2026-05-08 00:15 | -23.64955 | -46.51751 | 9281 ft | 312 kts | 135° |
| 2026-05-08 00:15 | -23.66532 | -46.50111 | 10089 ft | 316 kts | 135° |
| 2026-05-08 00:15 | -23.68150 | -46.48409 | 10538 ft | 334 kts | 134° |
| 2026-05-08 00:15 | -23.69837 | -46.46535 | 10694 ft | 358 kts | 126° |
| 2026-05-08 00:16 | -23.70958 | -46.44064 | 10849 ft | 373 kts | 100° |
| 2026-05-08 00:16 | -23.71053 | -46.41217 | 11104 ft | 381 kts | 79° |
| 2026-05-08 00:16 | -23.70503 | -46.38379 | 11620 ft | 383 kts | 66° |
| 2026-05-08 00:16 | -23.69089 | -46.35974 | 12269 ft | 376 kts | 41° |
| 2026-05-08 00:17 | -23.66979 | -46.34336 | 12939 ft | 373 kts | 26° |
| 2026-05-08 00:17 | -23.64612 | -46.33144 | 13509 ft | 377 kts | 20° |
| 2026-05-08 00:17 | -23.62136 | -46.32149 | 14005 ft | 381 kts | 19° |
| 2026-05-08 00:17 | -23.59606 | -46.31205 | 14479 ft | 385 kts | 18° |
| 2026-05-08 00:18 | -23.57088 | -46.30286 | 14981 ft | 387 kts | 18° |
| 2026-05-08 00:18 | -23.54523 | -46.29349 | 15492 ft | 389 kts | 18° |
| 2026-05-08 00:18 | -23.51943 | -46.28399 | 15948 ft | 393 kts | 18° |
| 2026-05-08 00:18 | -23.49346 | -46.27435 | 16440 ft | 396 kts | 18° |
| 2026-05-08 00:19 | -23.46736 | -46.26459 | 16918 ft | 399 kts | 18° |
| 2026-05-08 00:19 | -23.44091 | -46.25467 | 17350 ft | 403 kts | 18° |
| 2026-05-08 00:19 | -23.41428 | -46.24465 | 17702 ft | 408 kts | 18° |
| 2026-05-08 00:19 | -23.38714 | -46.23443 | 18086 ft | 413 kts | 18° |
| 2026-05-08 00:20 | -23.35981 | -46.22413 | 18509 ft | 415 kts | 18° |
| 2026-05-08 00:20 | -23.33276 | -46.21394 | 18877 ft | 418 kts | 18° |
| 2026-05-08 00:20 | -23.30509 | -46.20353 | 19226 ft | 422 kts | 18° |
| 2026-05-08 00:20 | -23.27722 | -46.19305 | 19559 ft | 426 kts | 18° |
| 2026-05-08 00:21 | -23.24913 | -46.18249 | 19893 ft | 429 kts | 18° |
| 2026-05-08 00:21 | -23.22080 | -46.17184 | 20227 ft | 432 kts | 18° |
| 2026-05-08 00:21 | -23.19219 | -46.16110 | 20544 ft | 436 kts | 18° |
| 2026-05-08 00:21 | -23.16332 | -46.15026 | 20835 ft | 440 kts | 18° |
| 2026-05-08 00:22 | -23.13427 | -46.13936 | 21146 ft | 444 kts | 17° |
| 2026-05-08 00:22 | -23.10497 | -46.12837 | 21468 ft | 447 kts | 17° |
| 2026-05-08 00:22 | -23.07537 | -46.11727 | 21787 ft | 450 kts | 17° |
| 2026-05-08 00:22 | -23.04603 | -46.10627 | 22090 ft | 453 kts | 17° |
| 2026-05-08 00:23 | -23.01608 | -46.09505 | 22398 ft | 456 kts | 17° |
| 2026-05-08 00:23 | -22.98588 | -46.08374 | 22699 ft | 459 kts | 17° |
| 2026-05-08 00:23 | -22.95561 | -46.07241 | 22971 ft | 462 kts | 17° |
| 2026-05-08 00:23 | -22.92515 | -46.06102 | 23273 ft | 464 kts | 17° |
| 2026-05-08 00:24 | -22.89450 | -46.04955 | 23578 ft | 467 kts | 17° |
| 2026-05-08 00:24 | -22.86391 | -46.03813 | 23798 ft | 470 kts | 17° |
| 2026-05-08 00:24 | -22.83289 | -46.02654 | 24045 ft | 473 kts | 17° |
| 2026-05-08 00:24 | -22.80175 | -46.01491 | 24303 ft | 474 kts | 17° |
| 2026-05-08 00:25 | -22.77048 | -46.00323 | 24577 ft | 476 kts | 17° |
| 2026-05-08 00:25 | -22.73907 | -45.99151 | 24816 ft | 478 kts | 17° |
| 2026-05-08 00:25 | -22.70750 | -45.97974 | 25053 ft | 480 kts | 17° |
| 2026-05-08 00:25 | -22.67579 | -45.96793 | 25293 ft | 482 kts | 17° |
| 2026-05-08 00:26 | -22.64437 | -45.95623 | 25442 ft | 486 kts | 17° |
| 2026-05-08 00:26 | -22.61234 | -45.94431 | 25675 ft | 487 kts | 17° |
| 2026-05-08 00:26 | -22.58024 | -45.93236 | 25941 ft | 488 kts | 17° |
| 2026-05-08 00:26 | -22.54811 | -45.92041 | 26171 ft | 490 kts | 17° |
| 2026-05-08 00:27 | -22.51571 | -45.90836 | 26380 ft | 492 kts | 17° |
| 2026-05-08 00:27 | -22.48334 | -45.89633 | 26585 ft | 494 kts | 17° |
| 2026-05-08 00:27 | -22.45075 | -45.88423 | 26791 ft | 495 kts | 17° |
| 2026-05-08 00:27 | -22.41797 | -45.87206 | 27000 ft | 497 kts | 17° |
| 2026-05-08 00:28 | -22.38517 | -45.85988 | 27210 ft | 499 kts | 17° |
| 2026-05-08 00:28 | -22.35219 | -45.84765 | 27407 ft | 501 kts | 17° |
| 2026-05-08 00:28 | -22.31952 | -45.83553 | 27583 ft | 503 kts | 18° |
| 2026-05-08 00:28 | -22.28717 | -45.82090 | 27778 ft | 506 kts | 26° |
| 2026-05-08 00:29 | -22.25691 | -45.80127 | 28067 ft | 507 kts | 35° |
| 2026-05-08 00:29 | -22.22928 | -45.77768 | 28401 ft | 505 kts | 38° |
| 2026-05-08 00:29 | -22.20202 | -45.75357 | 28729 ft | 505 kts | 39° |
| 2026-05-08 00:29 | -22.17513 | -45.72970 | 29030 ft | 505 kts | 39° |
| 2026-05-08 00:30 | -22.14791 | -45.70570 | 29323 ft | 505 kts | 38° |
| 2026-05-08 00:30 | -22.12058 | -45.68181 | 29616 ft | 505 kts | 38° |
| 2026-05-08 00:30 | -22.09320 | -45.65804 | 29946 ft | 504 kts | 38° |
| 2026-05-08 00:30 | -22.06584 | -45.63441 | 30261 ft | 504 kts | 38° |
| 2026-05-08 00:31 | -22.03876 | -45.61109 | 30531 ft | 503 kts | 38° |
| 2026-05-08 00:31 | -22.01130 | -45.58748 | 30776 ft | 504 kts | 38° |
| 2026-05-08 00:31 | -21.98384 | -45.56387 | 31022 ft | 504 kts | 38° |
| 2026-05-08 00:31 | -21.95641 | -45.54029 | 31328 ft | 504 kts | 38° |
| 2026-05-08 00:32 | -21.92893 | -45.51667 | 31611 ft | 504 kts | 38° |
| 2026-05-08 00:32 | -21.90157 | -45.49316 | 31870 ft | 504 kts | 38° |
| 2026-05-08 00:32 | -21.87405 | -45.46951 | 32127 ft | 505 kts | 38° |
| 2026-05-08 00:32 | -21.84658 | -45.44592 | 32407 ft | 505 kts | 38° |
| 2026-05-08 00:33 | -21.81946 | -45.42264 | 32687 ft | 505 kts | 38° |
| 2026-05-08 00:33 | -21.79203 | -45.39911 | 32975 ft | 505 kts | 38° |
| 2026-05-08 00:33 | -21.76449 | -45.37550 | 33243 ft | 505 kts | 38° |
| 2026-05-08 00:33 | -21.73690 | -45.35185 | 33522 ft | 505 kts | 38° |
| 2026-05-08 00:34 | -21.70936 | -45.32826 | 33795 ft | 505 kts | 38° |
| 2026-05-08 00:34 | -21.68184 | -45.30471 | 34038 ft | 506 kts | 39° |
| 2026-05-08 00:34 | -21.65454 | -45.28135 | 34246 ft | 507 kts | 38° |
| 2026-05-08 00:34 | -21.62695 | -45.25774 | 34480 ft | 507 kts | 38° |
| 2026-05-08 00:35 | -21.59931 | -45.23412 | 34727 ft | 507 kts | 38° |
| 2026-05-08 00:35 | -21.57169 | -45.21052 | 34962 ft | 507 kts | 38° |
| 2026-05-08 00:35 | -21.54410 | -45.18696 | 35178 ft | 507 kts | 38° |
| 2026-05-08 00:35 | -21.51641 | -45.16333 | 35368 ft | 508 kts | 38° |
| 2026-05-08 00:36 | -21.48870 | -45.13968 | 35571 ft | 509 kts | 38° |
| 2026-05-08 00:36 | -21.46100 | -45.11607 | 35800 ft | 509 kts | 38° |
| 2026-05-08 00:36 | -21.43366 | -45.09276 | 36018 ft | 508 kts | 38° |
| 2026-05-08 00:36 | -21.40590 | -45.06912 | 36241 ft | 508 kts | 38° |
| 2026-05-08 00:37 | -21.37820 | -45.04553 | 36412 ft | 509 kts | 38° |
| 2026-05-08 00:37 | -21.35042 | -45.02188 | 36576 ft | 511 kts | 38° |
| 2026-05-08 00:37 | -21.32246 | -44.99810 | 36769 ft | 511 kts | 38° |
| 2026-05-08 00:38 | -21.26674 | -44.95073 | 37216 ft | 510 kts | 38° |
| 2026-05-08 00:38 | -21.23927 | -44.92739 | 37392 ft | 511 kts | 38° |
| 2026-05-08 00:38 | -21.21138 | -44.90371 | 37545 ft | 512 kts | 38° |
| 2026-05-08 00:38 | -21.18338 | -44.87995 | 37733 ft | 512 kts | 38° |
| 2026-05-08 00:39 | -21.15547 | -44.85621 | 37934 ft | 511 kts | 38° |
| 2026-05-08 00:39 | -21.12761 | -44.83245 | 38129 ft | 511 kts | 38° |
| 2026-05-08 00:39 | -21.09976 | -44.80869 | 38383 ft | 510 kts | 38° |
| 2026-05-08 00:39 | -21.07237 | -44.78536 | 38609 ft | 509 kts | 39° |
| 2026-05-08 00:40 | -21.04464 | -44.76179 | 38812 ft | 508 kts | 38° |
| 2026-05-08 00:40 | -21.01635 | -44.73914 | 38949 ft | 508 kts | 35° |
| 2026-05-08 00:40 | -20.98749 | -44.71732 | 39068 ft | 509 kts | 34° |
| 2026-05-08 00:41 | -20.92937 | -44.67406 | 39096 ft | 508 kts | 34° |
| 2026-05-08 00:41 | -20.87174 | -44.63040 | 39103 ft | 506 kts | 35° |
| 2026-05-08 00:42 | -20.81435 | -44.58653 | 39113 ft | 505 kts | 35° |
| 2026-05-08 00:42 | -20.75739 | -44.54311 | 39113 ft | 505 kts | 35° |
| 2026-05-08 00:43 | -20.70022 | -44.49958 | 39107 ft | 504 kts | 35° |
| 2026-05-08 00:43 | -20.64298 | -44.45601 | 39114 ft | 504 kts | 35° |
| 2026-05-08 00:44 | -20.58611 | -44.41275 | 39109 ft | 505 kts | 36° |
| 2026-05-08 00:44 | -20.52874 | -44.36915 | 39123 ft | 505 kts | 36° |
| 2026-05-08 00:45 | -20.47161 | -44.32576 | 39113 ft | 507 kts | 36° |
| 2026-05-08 00:45 | -20.41418 | -44.28186 | 39117 ft | 508 kts | 37° |
| 2026-05-08 00:46 | -20.35770 | -44.23693 | 39112 ft | 509 kts | 37° |
| 2026-05-08 00:46 | -20.30090 | -44.19149 | 39121 ft | 510 kts | 37° |
| 2026-05-08 00:47 | -20.24384 | -44.14616 | 39104 ft | 511 kts | 37° |
| 2026-05-08 00:47 | -20.18675 | -44.10096 | 39112 ft | 512 kts | 37° |
| 2026-05-08 00:48 | -20.12982 | -44.05592 | 39127 ft | 512 kts | 37° |
| 2026-05-08 00:48 | -20.07283 | -44.01091 | 39137 ft | 512 kts | 37° |
| 2026-05-08 00:49 | -20.02508 | -43.97345 | 39134 ft | 512 kts | 37° |
| 2026-05-08 00:49 | -19.96767 | -43.92849 | 39153 ft | 510 kts | 37° |
| 2026-05-08 00:50 | -19.91055 | -43.88374 | 39162 ft | 509 kts | 37° |
| 2026-05-08 00:50 | -19.85390 | -43.83938 | 39154 ft | 509 kts | 37° |
| 2026-05-08 00:51 | -19.79565 | -43.79614 | 39150 ft | 509 kts | 34° |
| 2026-05-08 00:51 | -19.73711 | -43.75442 | 39137 ft | 509 kts | 34° |
| 2026-05-08 00:52 | -19.67838 | -43.71231 | 39138 ft | 509 kts | 35° |
| 2026-05-08 00:52 | -19.61986 | -43.67002 | 39128 ft | 508 kts | 35° |
| 2026-05-08 00:53 | -19.56136 | -43.62767 | 39133 ft | 509 kts | 35° |
| 2026-05-08 00:53 | -19.50302 | -43.58550 | 39115 ft | 509 kts | 35° |
| 2026-05-08 00:54 | -19.44441 | -43.54320 | 39099 ft | 509 kts | 35° |
| 2026-05-08 00:54 | -19.38581 | -43.50093 | 39110 ft | 509 kts | 35° |
| 2026-05-08 00:55 | -19.32745 | -43.45886 | 39113 ft | 509 kts | 35° |
| 2026-05-08 00:55 | -19.26947 | -43.41562 | 39113 ft | 509 kts | 38° |
| 2026-05-08 00:56 | -19.21316 | -43.37025 | 39101 ft | 508 kts | 39° |
| 2026-05-08 00:56 | -19.15698 | -43.32492 | 39102 ft | 508 kts | 39° |
| 2026-05-08 00:57 | -19.10094 | -43.28030 | 39104 ft | 508 kts | 38° |
| 2026-05-08 00:57 | -19.04440 | -43.23556 | 39107 ft | 507 kts | 38° |
| 2026-05-08 00:58 | -18.98790 | -43.19091 | 39111 ft | 507 kts | 38° |
| 2026-05-08 00:58 | -18.93129 | -43.14616 | 39104 ft | 507 kts | 38° |
| 2026-05-08 00:59 | -18.87508 | -43.10174 | 39116 ft | 507 kts | 38° |
| 2026-05-08 00:59 | -18.81854 | -43.05711 | 39100 ft | 507 kts | 38° |
| 2026-05-08 01:00 | -18.76197 | -43.01251 | 39135 ft | 507 kts | 38° |
| 2026-05-08 01:00 | -18.70541 | -42.96799 | 39113 ft | 507 kts | 38° |
| 2026-05-08 01:01 | -18.64911 | -42.92368 | 39116 ft | 507 kts | 38° |
| 2026-05-08 01:01 | -18.59257 | -42.87920 | 39107 ft | 507 kts | 38° |
| 2026-05-08 01:02 | -18.53596 | -42.83471 | 39113 ft | 506 kts | 38° |
| 2026-05-08 01:02 | -18.47978 | -42.79058 | 39118 ft | 507 kts | 38° |
| 2026-05-08 01:03 | -18.42312 | -42.74608 | 39114 ft | 507 kts | 39° |
| 2026-05-08 01:03 | -18.36660 | -42.70170 | 39106 ft | 507 kts | 39° |
| 2026-05-08 01:04 | -18.31011 | -42.65739 | 39103 ft | 507 kts | 38° |
| 2026-05-08 01:04 | -18.25385 | -42.61330 | 39114 ft | 506 kts | 38° |
| 2026-05-08 01:05 | -18.19727 | -42.56900 | 39099 ft | 506 kts | 39° |
| 2026-05-08 01:05 | -18.14073 | -42.52476 | 39104 ft | 506 kts | 38° |
| 2026-05-08 01:06 | -18.08424 | -42.48060 | 39112 ft | 505 kts | 38° |
| 2026-05-08 01:06 | -18.02811 | -42.43675 | 39110 ft | 506 kts | 38° |
| 2026-05-08 01:07 | -17.97152 | -42.39259 | 39116 ft | 505 kts | 38° |
| 2026-05-08 01:07 | -17.91496 | -42.34848 | 39112 ft | 505 kts | 38° |
| 2026-05-08 01:08 | -17.85890 | -42.30480 | 39121 ft | 505 kts | 38° |
| 2026-05-08 01:08 | -17.80235 | -42.26077 | 39121 ft | 505 kts | 38° |
| 2026-05-08 01:09 | -17.74593 | -42.21687 | 39121 ft | 505 kts | 38° |
| 2026-05-08 01:09 | -17.68937 | -42.17290 | 39135 ft | 505 kts | 38° |
| 2026-05-08 01:10 | -17.63333 | -42.12936 | 39126 ft | 505 kts | 38° |
| 2026-05-08 01:10 | -17.57673 | -42.08543 | 39139 ft | 505 kts | 38° |
| 2026-05-08 01:11 | -17.52045 | -42.04177 | 39129 ft | 505 kts | 38° |
| 2026-05-08 01:11 | -17.46382 | -41.99789 | 39126 ft | 505 kts | 38° |
| 2026-05-08 01:12 | -17.40720 | -41.95402 | 39125 ft | 505 kts | 38° |
| 2026-05-08 01:12 | -17.35074 | -41.91027 | 39118 ft | 505 kts | 38° |
| 2026-05-08 01:13 | -17.29450 | -41.86672 | 39119 ft | 505 kts | 38° |
| 2026-05-08 01:13 | -17.23793 | -41.82294 | 39130 ft | 505 kts | 38° |
| 2026-05-08 01:14 | -17.18134 | -41.77918 | 39120 ft | 505 kts | 38° |
| 2026-05-08 01:14 | -17.12511 | -41.73574 | 39116 ft | 505 kts | 38° |
| 2026-05-08 01:15 | -17.06888 | -41.69233 | 39116 ft | 505 kts | 38° |
| 2026-05-08 01:15 | -17.01215 | -41.64857 | 39125 ft | 505 kts | 38° |
| 2026-05-08 01:16 | -16.95555 | -41.60493 | 39120 ft | 505 kts | 38° |
| 2026-05-08 01:16 | -16.89902 | -41.56139 | 39120 ft | 505 kts | 38° |
| 2026-05-08 01:17 | -16.84279 | -41.51811 | 39111 ft | 505 kts | 38° |
| 2026-05-08 01:17 | -16.78603 | -41.47445 | 39118 ft | 505 kts | 38° |
| 2026-05-08 01:18 | -16.72975 | -41.43118 | 39120 ft | 505 kts | 38° |
| 2026-05-08 01:18 | -16.67312 | -41.38762 | 39116 ft | 505 kts | 38° |
| 2026-05-08 01:19 | -16.61669 | -41.34387 | 39123 ft | 505 kts | 39° |
| 2026-05-08 01:19 | -16.56028 | -41.30006 | 39106 ft | 505 kts | 39° |
| 2026-05-08 01:20 | -16.50411 | -41.25649 | 39120 ft | 505 kts | 39° |
| 2026-05-08 01:20 | -16.44793 | -41.21299 | 39117 ft | 506 kts | 39° |
| 2026-05-08 01:21 | -16.39133 | -41.16921 | 39114 ft | 506 kts | 38° |
| 2026-05-08 01:21 | -16.33469 | -41.12542 | 39122 ft | 506 kts | 38° |
| 2026-05-08 01:22 | -16.27831 | -41.08187 | 39104 ft | 507 kts | 38° |
| 2026-05-08 01:22 | -16.22184 | -41.03827 | 39106 ft | 506 kts | 38° |
| 2026-05-08 01:23 | -16.16518 | -40.99457 | 39117 ft | 506 kts | 38° |
| 2026-05-08 01:23 | -16.10848 | -40.95086 | 39117 ft | 506 kts | 38° |
| 2026-05-08 01:24 | -16.05223 | -40.90753 | 39121 ft | 506 kts | 38° |
| 2026-05-08 01:24 | -15.99566 | -40.86399 | 39103 ft | 505 kts | 38° |
| 2026-05-08 01:25 | -15.93923 | -40.82059 | 39112 ft | 505 kts | 38° |
| 2026-05-08 01:25 | -15.88271 | -40.77714 | 39110 ft | 504 kts | 38° |
| 2026-05-08 01:26 | -15.82621 | -40.73374 | 39101 ft | 504 kts | 38° |
| 2026-05-08 01:26 | -15.77028 | -40.69081 | 39118 ft | 503 kts | 38° |
| 2026-05-08 01:27 | -15.71385 | -40.64753 | 39113 ft | 503 kts | 38° |
| 2026-05-08 01:27 | -15.65757 | -40.60439 | 39115 ft | 503 kts | 38° |
| 2026-05-08 01:28 | -15.60114 | -40.56118 | 39115 ft | 503 kts | 38° |
| 2026-05-08 01:28 | -15.54495 | -40.51816 | 39104 ft | 503 kts | 38° |
| 2026-05-08 01:29 | -15.48874 | -40.47517 | 39113 ft | 503 kts | 38° |
| 2026-05-08 01:29 | -15.43229 | -40.43201 | 39104 ft | 504 kts | 38° |
| 2026-05-08 01:30 | -15.37569 | -40.38878 | 39105 ft | 505 kts | 38° |
| 2026-05-08 01:30 | -15.31935 | -40.34575 | 39093 ft | 505 kts | 38° |
| 2026-05-08 01:31 | -15.26254 | -40.30243 | 39097 ft | 505 kts | 38° |
| 2026-05-08 01:31 | -15.20615 | -40.25948 | 39101 ft | 505 kts | 38° |
| 2026-05-08 01:32 | -15.14932 | -40.21622 | 39104 ft | 505 kts | 38° |
| 2026-05-08 01:32 | -15.09303 | -40.17337 | 39088 ft | 505 kts | 38° |
| 2026-05-08 01:33 | -15.03620 | -40.13014 | 39104 ft | 504 kts | 38° |
| 2026-05-08 01:33 | -14.98003 | -40.08745 | 39096 ft | 504 kts | 38° |
| 2026-05-08 01:34 | -14.92349 | -40.04450 | 39096 ft | 503 kts | 38° |
| 2026-05-08 01:34 | -14.86705 | -40.00166 | 39093 ft | 502 kts | 38° |
| 2026-05-08 01:35 | -14.81117 | -39.95927 | 39100 ft | 501 kts | 37° |
| 2026-05-08 01:35 | -14.75504 | -39.91671 | 39090 ft | 500 kts | 37° |
| 2026-05-08 01:36 | -14.69892 | -39.87419 | 39090 ft | 500 kts | 37° |
| 2026-05-08 01:36 | -14.64278 | -39.83169 | 39088 ft | 499 kts | 37° |
| 2026-05-08 01:37 | -14.58706 | -39.78953 | 39101 ft | 499 kts | 37° |
| 2026-05-08 01:37 | -14.53097 | -39.74711 | 39086 ft | 499 kts | 37° |
| 2026-05-08 01:38 | -14.47497 | -39.70478 | 39086 ft | 499 kts | 37° |
| 2026-05-08 01:38 | -14.42829 | -39.66953 | 39082 ft | 499 kts | 37° |
| 2026-05-08 01:39 | -14.36315 | -39.62035 | 39067 ft | 498 kts | 37° |
| 2026-05-08 01:39 | -14.30728 | -39.57821 | 39089 ft | 498 kts | 37° |
| 2026-05-08 01:40 | -14.26038 | -39.54302 | 39082 ft | 498 kts | 37° |
| 2026-05-08 01:40 | -14.20437 | -39.50109 | 39074 ft | 498 kts | 37° |
| 2026-05-08 01:41 | -14.14869 | -39.45942 | 39058 ft | 497 kts | 37° |
| 2026-05-08 01:41 | -14.09266 | -39.41748 | 39070 ft | 497 kts | 37° |
| 2026-05-08 01:42 | -14.03668 | -39.37560 | 39074 ft | 496 kts | 37° |
| 2026-05-08 01:42 | -13.98107 | -39.33401 | 39086 ft | 496 kts | 36° |
| 2026-05-08 01:43 | -13.92506 | -39.29215 | 39065 ft | 496 kts | 36° |
| 2026-05-08 01:43 | -13.86911 | -39.25037 | 39058 ft | 495 kts | 36° |
| 2026-05-08 01:44 | -13.81370 | -39.20902 | 39068 ft | 495 kts | 36° |
| 2026-05-08 01:44 | -13.75782 | -39.16733 | 39060 ft | 494 kts | 36° |
| 2026-05-08 01:45 | -13.70218 | -39.12585 | 39058 ft | 494 kts | 36° |
| 2026-05-08 01:45 | -13.64649 | -39.08434 | 39043 ft | 493 kts | 36° |
| 2026-05-08 01:46 | -13.59124 | -39.04320 | 39063 ft | 492 kts | 36° |
| 2026-05-08 01:46 | -13.53550 | -39.00190 | 39046 ft | 492 kts | 35° |
| 2026-05-08 01:47 | -13.48029 | -38.96112 | 39043 ft | 491 kts | 35° |
| 2026-05-08 01:47 | -13.42470 | -38.92005 | 39056 ft | 491 kts | 35° |
| 2026-05-08 01:48 | -13.34188 | -38.85887 | 39052 ft | 490 kts | 35° |
| 2026-05-08 01:48 | -13.28649 | -38.81797 | 39047 ft | 490 kts | 35° |
| 2026-05-08 01:49 | -13.23113 | -38.77713 | 39054 ft | 490 kts | 35° |
| 2026-05-08 01:49 | -13.17572 | -38.73627 | 39051 ft | 490 kts | 35° |
| 2026-05-08 01:50 | -13.12024 | -38.69537 | 39042 ft | 490 kts | 34° |
| 2026-05-08 01:50 | -13.06475 | -38.65450 | 39057 ft | 490 kts | 34° |
| 2026-05-08 01:51 | -13.00967 | -38.61395 | 39043 ft | 490 kts | 34° |
| 2026-05-08 01:51 | -12.95411 | -38.57307 | 39046 ft | 490 kts | 34° |
| 2026-05-08 01:52 | -12.89892 | -38.53249 | 39030 ft | 489 kts | 34° |
| 2026-05-08 01:52 | -12.84349 | -38.49175 | 39040 ft | 489 kts | 34° |
| 2026-05-08 01:53 | -12.78853 | -38.45138 | 39041 ft | 488 kts | 34° |
| 2026-05-08 01:53 | -12.73316 | -38.41072 | 39040 ft | 488 kts | 34° |
| 2026-05-08 01:54 | -12.67789 | -38.37017 | 39032 ft | 488 kts | 34° |
| 2026-05-08 01:54 | -12.62301 | -38.32992 | 39036 ft | 487 kts | 33° |
| 2026-05-08 01:55 | -12.56791 | -38.28953 | 39041 ft | 486 kts | 33° |
| 2026-05-08 01:55 | -12.51302 | -38.24932 | 39042 ft | 485 kts | 33° |
| 2026-05-08 01:56 | -12.45814 | -38.20914 | 39042 ft | 484 kts | 33° |
| 2026-05-08 01:56 | -12.40334 | -38.16903 | 39041 ft | 483 kts | 33° |
| 2026-05-08 01:57 | -12.34897 | -38.12925 | 39040 ft | 483 kts | 32° |
| 2026-05-08 01:57 | -12.29425 | -38.08924 | 39042 ft | 482 kts | 32° |
| 2026-05-08 01:58 | -12.23996 | -38.04961 | 39043 ft | 481 kts | 32° |
| 2026-05-08 01:58 | -12.18539 | -38.00980 | 39042 ft | 481 kts | 32° |
| 2026-05-08 01:59 | -12.13093 | -37.97009 | 39042 ft | 480 kts | 32° |
| 2026-05-08 01:59 | -12.07640 | -37.93033 | 39050 ft | 480 kts | 32° |
| 2026-05-08 02:00 | -12.02230 | -37.89091 | 39038 ft | 480 kts | 32° |
| 2026-05-08 02:00 | -11.96781 | -37.85121 | 39040 ft | 480 kts | 32° |
| 2026-05-08 02:01 | -11.91343 | -37.81162 | 39042 ft | 480 kts | 32° |
| 2026-05-08 02:01 | -11.85899 | -37.77203 | 39027 ft | 479 kts | 31° |
| 2026-05-08 02:02 | -11.80487 | -37.73279 | 39035 ft | 479 kts | 31° |
| 2026-05-08 02:02 | -11.75043 | -37.69335 | 39042 ft | 479 kts | 31° |
| 2026-05-08 02:03 | -11.69626 | -37.65410 | 39030 ft | 479 kts | 31° |
| 2026-05-08 02:03 | -11.64177 | -37.61463 | 39026 ft | 479 kts | 31° |
| 2026-05-08 02:04 | -11.58746 | -37.57531 | 39018 ft | 479 kts | 31° |
| 2026-05-08 02:04 | -11.53347 | -37.53624 | 39031 ft | 479 kts | 31° |
| 2026-05-08 02:05 | -11.47904 | -37.49687 | 39037 ft | 479 kts | 31° |
| 2026-05-08 02:05 | -11.42473 | -37.45760 | 39036 ft | 479 kts | 31° |
| 2026-05-08 02:06 | -11.37027 | -37.41825 | 39011 ft | 480 kts | 31° |
| 2026-05-08 02:06 | -11.31577 | -37.37888 | 39028 ft | 480 kts | 31° |
| 2026-05-08 02:07 | -11.26121 | -37.33949 | 39024 ft | 480 kts | 31° |
| 2026-05-08 02:07 | -11.20707 | -37.30042 | 39026 ft | 479 kts | 31° |
| 2026-05-08 02:08 | -11.15264 | -37.26116 | 39023 ft | 479 kts | 31° |
| 2026-05-08 02:08 | -11.09832 | -37.22199 | 39020 ft | 478 kts | 31° |
| 2026-05-08 02:09 | -11.04406 | -37.18288 | 39020 ft | 476 kts | 31° |
| 2026-05-08 02:09 | -10.99002 | -37.14396 | 39015 ft | 475 kts | 31° |
| 2026-05-08 02:10 | -10.93601 | -37.10525 | 39018 ft | 474 kts | 30° |
| 2026-05-08 02:10 | -10.88217 | -37.06669 | 39022 ft | 472 kts | 30° |
| 2026-05-08 02:11 | -10.82878 | -37.02847 | 39011 ft | 471 kts | 31° |
| 2026-05-08 02:11 | -10.77531 | -36.99018 | 39017 ft | 470 kts | 31° |
| 2026-05-08 02:12 | -10.72180 | -36.95187 | 39030 ft | 469 kts | 30° |
| 2026-05-08 02:12 | -10.66880 | -36.91395 | 39020 ft | 468 kts | 30° |
| 2026-05-08 02:13 | -10.61559 | -36.87590 | 39023 ft | 467 kts | 30° |
| 2026-05-08 02:13 | -10.56240 | -36.83788 | 39015 ft | 466 kts | 31° |
| 2026-05-08 02:14 | -10.50932 | -36.79995 | 39026 ft | 465 kts | 31° |
| 2026-05-08 02:14 | -10.45658 | -36.76228 | 39031 ft | 465 kts | 31° |
| 2026-05-08 02:15 | -10.40366 | -36.72450 | 39030 ft | 464 kts | 30° |
| 2026-05-08 02:15 | -10.35066 | -36.68668 | 39022 ft | 464 kts | 30° |
| 2026-05-08 02:16 | -10.29779 | -36.64896 | 39013 ft | 463 kts | 31° |
| 2026-05-08 02:16 | -10.24540 | -36.61160 | 39023 ft | 462 kts | 31° |
| 2026-05-08 02:17 | -10.19269 | -36.57401 | 39022 ft | 462 kts | 31° |
| 2026-05-08 02:17 | -10.14038 | -36.53675 | 39024 ft | 461 kts | 31° |
| 2026-05-08 02:18 | -10.08775 | -36.49945 | 39029 ft | 461 kts | 30° |
| 2026-05-08 02:18 | -10.03515 | -36.46223 | 39017 ft | 461 kts | 30° |
| 2026-05-08 02:19 | -9.98248 | -36.42494 | 39022 ft | 460 kts | 30° |
| 2026-05-08 02:19 | -9.93026 | -36.38797 | 39029 ft | 459 kts | 30° |
| 2026-05-08 02:20 | -9.87781 | -36.35085 | 39025 ft | 459 kts | 30° |
| 2026-05-08 02:20 | -9.82537 | -36.31375 | 39028 ft | 459 kts | 30° |
| 2026-05-08 02:21 | -9.77306 | -36.27676 | 39031 ft | 459 kts | 30° |
| 2026-05-08 02:21 | -9.72077 | -36.23978 | 39031 ft | 457 kts | 30° |
| 2026-05-08 02:22 | -9.66881 | -36.20306 | 39029 ft | 457 kts | 29° |
| 2026-05-08 02:22 | -9.61667 | -36.16623 | 39032 ft | 456 kts | 29° |
| 2026-05-08 02:23 | -9.56470 | -36.12954 | 39030 ft | 455 kts | 29° |
| 2026-05-08 02:23 | -9.52158 | -36.09911 | 39024 ft | 454 kts | 29° |
| 2026-05-08 02:24 | -9.46973 | -36.06252 | 39019 ft | 453 kts | 29° |
| 2026-05-08 02:24 | -9.41800 | -36.02603 | 39017 ft | 453 kts | 29° |
| 2026-05-08 02:25 | -9.36621 | -35.98952 | 38824 ft | 457 kts | 29° |
| 2026-05-08 02:25 | -9.33996 | -35.97105 | 38260 ft | 459 kts | 29° |
| 2026-05-08 02:25 | -9.31377 | -35.95258 | 37651 ft | 456 kts | 29° |
| 2026-05-08 02:26 | -9.28809 | -35.93447 | 37040 ft | 455 kts | 29° |
| 2026-05-08 02:26 | -9.26214 | -35.91617 | 36418 ft | 454 kts | 29° |
| 2026-05-08 02:26 | -9.23617 | -35.89788 | 35792 ft | 454 kts | 29° |
| 2026-05-08 02:26 | -9.21016 | -35.87957 | 35113 ft | 455 kts | 29° |
| 2026-05-08 02:27 | -9.18408 | -35.86123 | 34395 ft | 457 kts | 29° |
| 2026-05-08 02:27 | -9.15751 | -35.84326 | 33567 ft | 459 kts | 28° |
| 2026-05-08 02:27 | -9.13085 | -35.82578 | 32676 ft | 463 kts | 27° |
| 2026-05-08 02:27 | -9.10350 | -35.80805 | 31715 ft | 468 kts | 27° |
| 2026-05-08 02:28 | -9.07582 | -35.79010 | 30742 ft | 474 kts | 28° |
| 2026-05-08 02:28 | -9.04782 | -35.77189 | 29687 ft | 481 kts | 28° |
| 2026-05-08 02:28 | -9.01991 | -35.75365 | 28559 ft | 484 kts | 28° |
| 2026-05-08 02:28 | -8.99149 | -35.73498 | 27582 ft | 484 kts | 29° |
| 2026-05-08 02:29 | -8.96327 | -35.71640 | 26652 ft | 483 kts | 29° |
| 2026-05-08 02:29 | -8.93504 | -35.69780 | 25812 ft | 481 kts | 29° |
| 2026-05-08 02:29 | -8.90750 | -35.67965 | 25178 ft | 473 kts | 30° |
| 2026-05-08 02:29 | -8.88012 | -35.66159 | 24611 ft | 464 kts | 30° |
| 2026-05-08 02:30 | -8.85318 | -35.64385 | 23971 ft | 458 kts | 30° |
| 2026-05-08 02:30 | -8.82652 | -35.62632 | 23215 ft | 453 kts | 30° |
| 2026-05-08 02:30 | -8.80045 | -35.60920 | 22398 ft | 450 kts | 30° |
| 2026-05-08 02:30 | -8.77424 | -35.59200 | 21579 ft | 446 kts | 30° |
| 2026-05-08 02:31 | -8.74822 | -35.57492 | 20779 ft | 444 kts | 31° |
| 2026-05-08 02:31 | -8.72241 | -35.55798 | 20011 ft | 441 kts | 31° |
| 2026-05-08 02:31 | -8.69674 | -35.54114 | 19262 ft | 438 kts | 32° |
| 2026-05-08 02:31 | -8.67121 | -35.52438 | 18539 ft | 436 kts | 32° |
| 2026-05-08 02:32 | -8.64587 | -35.50775 | 17757 ft | 433 kts | 33° |
| 2026-05-08 02:32 | -8.62071 | -35.49124 | 17048 ft | 428 kts | 33° |
| 2026-05-08 02:32 | -8.59619 | -35.47514 | 16417 ft | 423 kts | 33° |
| 2026-05-08 02:32 | -8.57141 | -35.45888 | 15798 ft | 416 kts | 33° |
| 2026-05-08 02:33 | -8.54722 | -35.44302 | 15176 ft | 411 kts | 34° |
| 2026-05-08 02:33 | -8.52368 | -35.42757 | 14559 ft | 406 kts | 34° |
| 2026-05-08 02:33 | -8.50001 | -35.41206 | 13960 ft | 402 kts | 34° |
| 2026-05-08 02:33 | -8.47673 | -35.39679 | 13400 ft | 395 kts | 34° |
| 2026-05-08 02:34 | -8.45434 | -35.38212 | 13262 ft | 378 kts | 34° |
| 2026-05-08 02:34 | -8.43272 | -35.36796 | 13149 ft | 362 kts | 34° |
| 2026-05-08 02:34 | -8.41197 | -35.35436 | 13045 ft | 347 kts | 35° |
| 2026-05-08 02:34 | -8.39210 | -35.34135 | 12952 ft | 334 kts | 35° |
| 2026-05-08 02:35 | -8.37300 | -35.32883 | 12871 ft | 321 kts | 35° |
| 2026-05-08 02:35 | -8.35458 | -35.31676 | 12793 ft | 309 kts | 35° |
| 2026-05-08 02:35 | -8.33687 | -35.30516 | 12707 ft | 299 kts | 35° |
| 2026-05-08 02:35 | -8.31962 | -35.29385 | 12530 ft | 292 kts | 35° |
| 2026-05-08 02:36 | -8.30283 | -35.28284 | 12247 ft | 290 kts | 35° |
| 2026-05-08 02:36 | -8.28589 | -35.27172 | 11935 ft | 290 kts | 36° |
| 2026-05-08 02:36 | -8.26896 | -35.26063 | 11649 ft | 288 kts | 36° |
| 2026-05-08 02:36 | -8.25240 | -35.24977 | 11373 ft | 286 kts | 36° |
| 2026-05-08 02:37 | -8.23571 | -35.23884 | 11089 ft | 284 kts | 36° |
| 2026-05-08 02:37 | -8.21911 | -35.22797 | 10810 ft | 283 kts | 36° |
| 2026-05-08 02:37 | -8.20254 | -35.21712 | 10544 ft | 281 kts | 36° |
| 2026-05-08 02:37 | -8.18635 | -35.20652 | 10281 ft | 280 kts | 36° |
| 2026-05-08 02:38 | -8.17004 | -35.19584 | 10006 ft | 279 kts | 36° |
| 2026-05-08 02:38 | -8.15383 | -35.18523 | 9718 ft | 277 kts | 36° |
| 2026-05-08 02:38 | -8.13771 | -35.17467 | 9408 ft | 276 kts | 36° |
| 2026-05-08 02:38 | -8.12163 | -35.16415 | 9103 ft | 275 kts | 36° |
| 2026-05-08 02:39 | -8.10560 | -35.15366 | 8815 ft | 273 kts | 36° |
| 2026-05-08 02:39 | -8.08971 | -35.14326 | 8528 ft | 272 kts | 36° |
| 2026-05-08 02:39 | -8.07384 | -35.13287 | 8230 ft | 271 kts | 36° |
| 2026-05-08 02:39 | -8.05810 | -35.12257 | 7951 ft | 269 kts | 36° |
| 2026-05-08 02:40 | -8.04250 | -35.11236 | 7663 ft | 269 kts | 36° |
| 2026-05-08 02:40 | -8.02680 | -35.10209 | 7389 ft | 268 kts | 36° |
| 2026-05-08 02:40 | -8.01117 | -35.09188 | 7118 ft | 266 kts | 36° |
| 2026-05-08 02:40 | -7.99566 | -35.08164 | 6828 ft | 265 kts | 39° |
| 2026-05-08 02:41 | -7.98422 | -35.06815 | 6652 ft | 251 kts | 65° |
| 2026-05-08 02:41 | -7.97784 | -35.05234 | 6444 ft | 239 kts | 73° |
| 2026-05-08 02:41 | -7.97273 | -35.03627 | 5896 ft | 243 kts | 74° |
| 2026-05-08 02:41 | -7.96760 | -35.01994 | 5396 ft | 242 kts | 74° |
| 2026-05-08 02:42 | -7.96244 | -35.00383 | 4861 ft | 239 kts | 74° |
| 2026-05-08 02:42 | -7.96032 | -34.98759 | 4299 ft | 233 kts | 102° |
| 2026-05-08 02:42 | -7.96863 | -34.97414 | 3773 ft | 229 kts | 142° |
| 2026-05-08 02:42 | -7.98328 | -34.96850 | 3278 ft | 225 kts | 163° |
| 2026-05-08 02:43 | -7.99828 | -34.96442 | 2716 ft | 221 kts | 161° |
| 2026-05-08 02:43 | -8.01267 | -34.96012 | 2199 ft | 215 kts | 162° |
| 2026-05-08 02:43 | -8.02661 | -34.95619 | 1814 ft | 200 kts | 161° |
| 2026-05-08 02:43 | -8.03941 | -34.95207 | 1552 ft | 186 kts | 159° |
| 2026-05-08 02:44 | -8.05119 | -34.94815 | 1321 ft | 168 kts | 160° |
| 2026-05-08 02:44 | -8.06169 | -34.94465 | 1096 ft | 151 kts | 160° |
| 2026-05-08 02:44 | -8.07125 | -34.94147 | 911 ft | 141 kts | 160° |
| 2026-05-08 02:44 | -8.08063 | -34.93834 | 741 ft | 144 kts | 161° |
| 2026-05-08 02:45 | -8.09018 | -34.93518 | 561 ft | 145 kts | 162° |
| 2026-05-08 02:45 | -8.09995 | -34.93192 | 343 ft | 149 kts | 161° |
| 2026-05-08 02:45 | -8.10984 | -34.92859 | 180 ft | 150 kts | 161° |
| 2026-05-08 02:45 | -8.11957 | -34.92541 | 43 ft | 144 kts | 161° |
| 2026-05-08 02:46 | -8.12737 | -34.92283 | 50 ft | 87 kts | 161° |
| 2026-05-08 02:46 | -8.13104 | -34.92163 | 46 ft | 28 kts | 162° |
| 2026-05-08 02:46 | -8.13255 | -34.92058 | 42 ft | 26 kts | 131° |
| 2026-05-08 02:46 | -8.13303 | -34.91972 | 43 ft | 8 kts | 81° |
| 2026-05-08 02:47 | -8.13255 | -34.91962 | 41 ft | 8 kts | 342° |
| 2026-05-08 02:47 | -8.13208 | -34.91978 | 43 ft | 6 kts | 341° |
| 2026-05-08 02:47 | -8.13169 | -34.91984 | 43 ft | 6 kts | 24° |
| 2026-05-08 02:47 | -8.13151 | -34.91948 | 45 ft | 6 kts | 72° |
| 2026-05-08 02:48 | -8.13143 | -34.91924 | 43 ft | 0 kts | 72° |